Brangus — WDB4516 — position and weather

sailwx.info

Track history (hours):
 
Tides and Currents Weather Stations Pressure Air Temp Water Temp Dewpoint Dewpoint Depression Visibility Wind Speed Wind Dir Waves Ship Positions

Brangus

Owner: Great Lakes Dredge & Dock Company, Oak Brook, IL. More information available from US FCC via Universal Licensing System and Coast Guard Vessel Documentation Center.

Last reported at 2018-Feb-22 06:28 UTC. Time now 2018-Feb-22 06:50 UTC.
Position N 36°46' W 076°18'.

; draft 3 m.

MMSI: 366899270.

Date/timePositionNaut miles runAvg speedWind from/ knotsBaromVisibWave heightAir tempDewpointWater temp
2018-Feb-22 06:28N 36°46' W 076°18'0 0.0
2018-Feb-22 05:59N 36°46' W 076°18'0 0.0
2018-Feb-22 05:29N 36°46' W 076°18'0 0.0
2018-Feb-22 04:59N 36°46' W 076°18'0 0.0
2018-Feb-22 04:29N 36°46' W 076°18'0 0.0
2018-Feb-22 03:59N 36°46' W 076°18'0 0.0
2018-Feb-22 03:30N 36°46' W 076°18'0 0.0
2018-Feb-22 02:55N 36°46' W 076°18'0 0.0
2018-Feb-22 02:29N 36°46' W 076°18'0 0.0
2018-Feb-22 01:58N 36°46' W 076°18'0 0.0
2018-Feb-22 01:29N 36°46' W 076°18'0 0.0
2018-Feb-22 00:59N 36°46' W 076°18'0 0.0
2018-Feb-22 00:30N 36°46' W 076°18'0 0.0
2018-Feb-22 00:00N 36°46' W 076°18'0 0.0
2018-Feb-21 23:30N 36°46' W 076°18'0 0.0
2018-Feb-21 23:00N 36°46' W 076°18'0 0.0
2018-Feb-21 22:30N 36°46' W 076°18'0 0.0
2018-Feb-21 22:00N 36°46' W 076°18'0 0.0
2018-Feb-21 21:29N 36°46' W 076°18'0 0.0
2018-Feb-21 20:59N 36°46' W 076°18'0 0.9
2018-Feb-21 20:30N 36°45' W 076°18'0 0.9
2018-Feb-21 20:00N 36°46' W 076°18'0 0.0
2018-Feb-21 19:30N 36°46' W 076°18'0 0.0
2018-Feb-21 19:00N 36°46' W 076°18'0 0.0
2018-Feb-21 18:30N 36°46' W 076°18'0 0.1
2018-Feb-21 18:00N 36°46' W 076°18'0 0.1
2018-Feb-21 17:31N 36°46' W 076°18'0 0.0
2018-Feb-21 17:00N 36°46' W 076°18'0 0.2
2018-Feb-21 16:30N 36°46' W 076°18'0 0.4
2018-Feb-21 16:00N 36°46' W 076°18'0 0.6
2018-Feb-21 15:30N 36°46' W 076°18'0 0.5
2018-Feb-21 15:00N 36°46' W 076°18'0 0.1
2018-Feb-21 14:30N 36°46' W 076°18'0 0.1
2018-Feb-21 14:00N 36°46' W 076°18'0 0.0
2018-Feb-21 13:30N 36°46' W 076°18'0 0.0
2018-Feb-21 13:00N 36°46' W 076°18'0 0.2
2018-Feb-21 12:30N 36°46' W 076°18'1 1.2
2018-Feb-21 12:00N 36°45' W 076°18'0 0.9
2018-Feb-21 11:28N 36°46' W 076°18'0 0.0
2018-Feb-21 10:58N 36°46' W 076°18'0 0.0
2018-Feb-21 10:25N 36°46' W 076°18'0 0.0
2018-Feb-21 09:58N 36°46' W 076°18'0 0.0
2018-Feb-21 09:26N 36°46' W 076°18'0 0.0
2018-Feb-21 09:00N 36°46' W 076°18'0 0.0
2018-Feb-21 08:29N 36°46' W 076°18'0 0.0
2018-Feb-21 08:00N 36°46' W 076°18'0 0.0
2018-Feb-21 07:30N 36°46' W 076°18'0 0.0
2018-Feb-21 06:55N 36°46' W 076°18'0 0.0
2018-Feb-21 06:23N 36°46' W 076°18'0 0.0
2018-Feb-21 05:59N 36°46' W 076°18'0 0.0
2018-Feb-21 05:28N 36°46' W 076°18'0 0.0
2018-Feb-21 04:54N 36°46' W 076°18'0 0.0
2018-Feb-21 04:30N 36°46' W 076°18'0 0.0
2018-Feb-21 04:00N 36°46' W 076°18'0 0.0
2018-Feb-21 03:27N 36°46' W 076°18'0 0.0
2018-Feb-21 03:00N 36°46' W 076°18'0 0.0
2018-Feb-21 02:30N 36°46' W 076°18'2 3.9
2018-Feb-21 02:00N 36°48' W 076°18'3 5.4
2018-Feb-21 01:30N 36°50' W 076°16'0 0.7
2018-Feb-21 01:00N 36°50' W 076°16'0 0.0
2018-Feb-21 00:30N 36°50' W 076°16'0 0.0
2018-Feb-21 00:00N 36°50' W 076°16'0 0.0
2018-Feb-20 23:30N 36°50' W 076°16'0 0.0
2018-Feb-20 23:00N 36°50' W 076°16'0 0.0
2018-Feb-20 22:30N 36°50' W 076°16'0 0.0
2018-Feb-20 22:00N 36°50' W 076°16'1 2.5
2018-Feb-20 21:30N 36°50' W 076°18'3 6.8
2018-Feb-20 21:00N 36°46' W 076°18'1 1.2
2018-Feb-20 20:30N 36°46' W 076°18'0 0.0
2018-Feb-20 20:00N 36°46' W 076°18'0 0.0
2018-Feb-20 19:30N 36°46' W 076°18'0 0.0
2018-Feb-20 19:00N 36°46' W 076°18'0 0.0
2018-Feb-20 18:30N 36°46' W 076°18'0 0.0
2018-Feb-20 18:00N 36°46' W 076°18'0 0.0
2018-Feb-20 17:30N 36°46' W 076°18'0 0.0
2018-Feb-20 17:00N 36°46' W 076°18'0 0.0
2018-Feb-20 16:30N 36°46' W 076°18'0 0.0
2018-Feb-20 16:00N 36°46' W 076°18'0 0.0
2018-Feb-20 15:30N 36°46' W 076°18'0 0.0
2018-Feb-20 15:00N 36°46' W 076°18'0 0.0
2018-Feb-20 14:29N 36°46' W 076°18'0 0.0
2018-Feb-20 14:00N 36°46' W 076°18'0 0.0
2018-Feb-20 13:30N 36°46' W 076°18'0 0.0
2018-Feb-20 13:00N 36°46' W 076°18'0 0.0
2018-Feb-20 12:30N 36°46' W 076°18'0 1.0
2018-Feb-20 12:00N 36°45' W 076°18'0 0.9
2018-Feb-20 11:27N 36°46' W 076°18'0 0.0
2018-Feb-20 11:00N 36°46' W 076°18'0 0.0
2018-Feb-20 10:29N 36°46' W 076°18'0 0.0
2018-Feb-20 09:58N 36°46' W 076°18'0 0.0
2018-Feb-20 09:30N 36°46' W 076°18'0 0.0
2018-Feb-20 08:59N 36°46' W 076°18'0 0.0
2018-Feb-20 08:27N 36°46' W 076°18'0 0.0
2018-Feb-20 08:00N 36°46' W 076°18'0 0.0
2018-Feb-20 07:29N 36°46' W 076°18'0 0.0
2018-Feb-20 06:59N 36°46' W 076°18'0 0.0
2018-Feb-20 06:30N 36°46' W 076°18'0 0.0
2018-Feb-20 06:00N 36°46' W 076°18'0 0.0
2018-Feb-20 05:28N 36°46' W 076°18'0 0.0
2018-Feb-20 04:57N 36°46' W 076°18'0 0.0
2018-Feb-20 04:29N 36°46' W 076°18'0 0.0
2018-Feb-20 03:59N 36°46' W 076°18'0 0.0
2018-Feb-20 03:29N 36°46' W 076°18'0 0.0
2018-Feb-20 02:59N 36°46' W 076°18'0 0.0
2018-Feb-20 02:28N 36°46' W 076°18'0 0.0
2018-Feb-20 01:58N 36°46' W 076°18'0 0.0
2018-Feb-20 01:30N 36°46' W 076°18'0 0.0
2018-Feb-20 01:00N 36°46' W 076°18'0 0.0
2018-Feb-20 00:26N 36°46' W 076°18'0 0.0
2018-Feb-20 00:00N 36°46' W 076°18'0 0.0
2018-Feb-19 23:28N 36°46' W 076°18'0 0.0
2018-Feb-19 23:00N 36°46' W 076°18'0 0.0
2018-Feb-19 22:29N 36°46' W 076°18'0 0.0
2018-Feb-19 21:53N 36°46' W 076°18'0 0.0
2018-Feb-19 21:30N 36°46' W 076°18'0 0.6
2018-Feb-19 21:00N 36°46' W 076°18'0 0.6
2018-Feb-19 20:30N 36°46' W 076°18'0 0.0
2018-Feb-19 20:00N 36°46' W 076°18'0 0.0
2018-Feb-19 19:30N 36°46' W 076°18'0 0.8
2018-Feb-19 19:00N 36°45' W 076°18'0 0.8
2018-Feb-19 18:30N 36°46' W 076°18'0 0.0
2018-Feb-19 18:00N 36°46' W 076°18'0 0.0
2018-Feb-19 17:30N 36°46' W 076°18'1 1.9
2018-Feb-19 17:00N 36°45' W 076°18'0 0.0
2018-Feb-19 16:29N 36°45' W 076°18'1 1.1
2018-Feb-19 16:00N 36°46' W 076°18'1 1.1
2018-Feb-19 15:30N 36°45' W 076°18'0 0.0
2018-Feb-19 15:00N 36°45' W 076°18'0 0.0
2018-Feb-19 14:30N 36°45' W 076°18'0 0.0
2018-Feb-19 14:00N 36°45' W 076°18'0 0.0
2018-Feb-19 13:30N 36°45' W 076°18'0 0.0
2018-Feb-19 12:57N 36°45' W 076°18'0 0.8
2018-Feb-19 12:30N 36°45' W 076°18'1 2.6
2018-Feb-19 12:00N 36°47' W 076°18'0 0.1
2018-Feb-19 11:30N 36°47' W 076°18'2 3.0
2018-Feb-19 11:00N 36°48' W 076°18'2 4.8
2018-Feb-19 10:30N 36°50' W 076°16'0 0.2
2018-Feb-19 10:00N 36°50' W 076°16'0 0.0
2018-Feb-19 09:30N 36°50' W 076°16'0 0.0
2018-Feb-19 09:00N 36°50' W 076°16'0 0.0
2018-Feb-19 08:30N 36°50' W 076°16'0 0.0
2018-Feb-19 08:00N 36°50' W 076°16'0 0.0
2018-Feb-19 07:30N 36°50' W 076°16'0 0.0
2018-Feb-19 07:00N 36°50' W 076°16'0 0.0
2018-Feb-19 06:30N 36°50' W 076°16'0 0.0
2018-Feb-19 06:00N 36°50' W 076°16'0 0.0
2018-Feb-19 05:30N 36°50' W 076°16'0 0.0
2018-Feb-19 05:00N 36°50' W 076°16'0 0.0
2018-Feb-19 04:29N 36°50' W 076°16'0 0.0
2018-Feb-19 03:59N 36°50' W 076°16'0 0.0
2018-Feb-19 03:30N 36°50' W 076°16'0 0.0
2018-Feb-19 03:00N 36°50' W 076°16'0 0.0
2018-Feb-19 02:30N 36°50' W 076°16'0 0.0
2018-Feb-19 02:00N 36°50' W 076°16'0 0.0
2018-Feb-19 01:30N 36°50' W 076°16'0 0.0
2018-Feb-19 01:00N 36°50' W 076°16'0 0.0
2018-Feb-19 00:30N 36°50' W 076°16'0 0.0
2018-Feb-19 00:00N 36°50' W 076°16'0 0.0
2018-Feb-18 23:30N 36°50' W 076°16'0 0.0
2018-Feb-18 23:00N 36°50' W 076°16'0 0.0
2018-Feb-18 22:30N 36°50' W 076°16'0 0.0
2018-Feb-18 22:00N 36°50' W 076°16'0 0.0
2018-Feb-18 21:30N 36°50' W 076°16'0 0.0
2018-Feb-18 21:00N 36°50' W 076°16'0 0.0
2018-Feb-18 20:30N 36°50' W 076°16'0 0.0
2018-Feb-18 19:59N 36°50' W 076°16'1 1.4
2018-Feb-18 19:30N 36°50' W 076°17'3 6.4
2018-Feb-18 19:00N 36°47' W 076°18'2 3.6
2018-Feb-18 18:30N 36°46' W 076°18'0 0.5
2018-Feb-18 18:00N 36°46' W 076°18'1 1.7
2018-Feb-18 17:30N 36°45' W 076°18'0 0.0
2018-Feb-18 17:00N 36°45' W 076°18'0 0.0
2018-Feb-18 16:30N 36°45' W 076°18'0 0.5
2018-Feb-18 16:00N 36°45' W 076°18'0 0.3
2018-Feb-18 15:30N 36°45' W 076°18'0 0.2
2018-Feb-18 15:00N 36°45' W 076°18'1 1.0
2018-Feb-18 14:30N 36°45' W 076°18'0 0.7
2018-Feb-18 14:00N 36°45' W 076°18'0 0.4
2018-Feb-18 13:30N 36°45' W 076°18'0 0.0
2018-Feb-18 13:00N 36°45' W 076°18'1 1.5
2018-Feb-18 12:30N 36°46' W 076°18'1 1.4
2018-Feb-18 12:00N 36°45' W 076°18'1 1.4
2018-Feb-18 11:30N 36°46' W 076°18'0 0.0
2018-Feb-18 11:00N 36°46' W 076°18'0 0.0
2018-Feb-18 10:30N 36°46' W 076°18'0 0.0
2018-Feb-18 10:00N 36°46' W 076°18'0 0.0
2018-Feb-18 09:30N 36°46' W 076°18'0 0.0
2018-Feb-18 09:00N 36°46' W 076°18'0 0.0
2018-Feb-18 08:30N 36°46' W 076°18'0 0.0
2018-Feb-18 08:00N 36°46' W 076°18'0 0.0
2018-Feb-18 07:30N 36°46' W 076°18'0 0.0
2018-Feb-18 07:00N 36°46' W 076°18'0 0.0
2018-Feb-18 06:30N 36°46' W 076°18'0 0.0
2018-Feb-18 06:01N 36°46' W 076°18'0 0.0
2018-Feb-18 05:30N 36°46' W 076°18'0 0.0
2018-Feb-18 05:00N 36°46' W 076°18'0 0.0
2018-Feb-18 04:30N 36°46' W 076°18'0 0.5
2018-Feb-18 04:00N 36°46' W 076°18'0 0.9
2018-Feb-18 03:31N 36°47' W 076°18'0 0.1
2018-Feb-18 03:01N 36°47' W 076°18'0 0.7
2018-Feb-18 02:31N 36°47' W 076°18'2 4.5
2018-Feb-18 02:01N 36°49' W 076°17'2 3.2
2018-Feb-18 01:30N 36°50' W 076°17'1 1.0
2018-Feb-18 01:00N 36°50' W 076°16'2 4.7
2018-Feb-18 00:30N 36°48' W 076°17'2 4.4
2018-Feb-18 00:01N 36°46' W 076°18'0 0.3
2018-Feb-17 23:30N 36°46' W 076°18'0 0.8
2018-Feb-17 23:01N 36°47' W 076°18'0 0.4
2018-Feb-17 22:31N 36°47' W 076°18'2 4.9
2018-Feb-17 22:01N 36°49' W 076°17'2 3.1
2018-Feb-17 21:30N 36°50' W 076°16'0 0.0
2018-Feb-17 21:01N 36°50' W 076°16'0 0.0
2018-Feb-17 20:31N 36°50' W 076°16'0 0.0
2018-Feb-17 20:01N 36°50' W 076°16'0 0.0
2018-Feb-17 19:30N 36°50' W 076°16'0 0.0
2018-Feb-17 18:02N 36°50' W 076°16'0 0.0
2018-Feb-17 18:01N 36°50' W 076°16'0 0.0
2018-Feb-17 17:31N 36°50' W 076°16'0 0.0
2018-Feb-17 17:00N 36°50' W 076°16'0 0.0
2018-Feb-17 16:30N 36°50' W 076°16'0 0.0
2018-Feb-17 15:57N 36°50' W 076°16'0 0.0
2018-Feb-17 15:31N 36°50' W 076°16'0 0.0
2018-Feb-17 15:01N 36°50' W 076°16'0 0.0
2018-Feb-17 14:30N 36°50' W 076°16'0 0.0
2018-Feb-17 14:00N 36°50' W 076°16'0 0.0
2018-Feb-17 13:30N 36°50' W 076°16'0 0.0
2018-Feb-17 13:01N 36°50' W 076°16'0 0.0
2018-Feb-17 12:31N 36°50' W 076°16'0 0.0
2018-Feb-17 12:00N 36°50' W 076°16'0 0.7
2018-Feb-17 11:30N 36°50' W 076°17'1 2.1
2018-Feb-17 11:01N 36°51' W 076°18'117 5.1
2018-Feb-16 12:07N 38°47' W 076°27'1 5.7
2018-Feb-16 12:00N 38°48' W 076°27'3 5.1
2018-Feb-16 11:30N 38°51' W 076°26'3 5.3
2018-Feb-16 11:00N 38°53' W 076°26'3 5.1
2018-Feb-16 10:30N 38°56' W 076°25'3 5.1
2018-Feb-16 09:56N 38°58' W 076°24'2 5.2
2018-Feb-16 09:30N 39°00' W 076°22'15 5.8
2018-Feb-16 06:56N 39°14' W 076°15'3 7.1
2018-Feb-16 06:30N 39°17' W 076°14'4 7.1
2018-Feb-16 06:00N 39°20' W 076°12'3 6.9
2018-Feb-16 05:30N 39°22' W 076°08'3 6.7
2018-Feb-16 05:00N 39°24' W 076°04'3 6.2
2018-Feb-16 04:30N 39°26' W 076°01'2 3.4
2018-Feb-16 04:00N 39°27' W 075°59'1 1.1
2018-Feb-16 03:30N 39°27' W 075°59'3 7.1
2018-Feb-16 03:01N 39°30' W 075°56'3 6.6
2018-Feb-16 02:30N 39°32' W 075°52'3 5.9
2018-Feb-16 02:00N 39°32' W 075°48'3 5.9
2018-Feb-16 01:30N 39°32' W 075°45'3 5.7
2018-Feb-16 01:00N 39°33' W 075°41'3 5.5
2018-Feb-16 00:30N 39°33' W 075°38'3 5.7
2018-Feb-16 00:00N 39°34' W 075°34'3 7.1
2018-Feb-15 23:30N 39°37' W 075°35'4 8.8
2018-Feb-15 23:00N 39°41' W 075°31'4 7.8
2018-Feb-15 22:30N 39°44' W 075°29'0 0.0
2018-Feb-15 22:00N 39°44' W 075°29'0 0.0
2018-Feb-15 21:30N 39°44' W 075°29'0 0.0
2018-Feb-15 21:00N 39°44' W 075°29'0 0.0
2018-Feb-15 20:31N 39°44' W 075°29'0 0.0
2018-Feb-15 20:01N 39°44' W 075°29'0 0.0
2018-Feb-15 19:30N 39°44' W 075°29'0 0.0
2018-Feb-15 19:01N 39°44' W 075°29'0 0.0
2018-Feb-15 18:30N 39°44' W 075°29'0 0.0
2018-Feb-15 18:01N 39°44' W 075°29'0 0.0
2018-Feb-15 17:31N 39°44' W 075°29'0 0.0
2018-Feb-15 17:00N 39°44' W 075°29'0 0.0
2018-Feb-15 16:30N 39°44' W 075°29'1 1.5
2018-Feb-15 16:01N 39°43' W 075°30'0 0.6
2018-Feb-15 15:29N 39°44' W 075°29'0 0.9
2018-Feb-15 15:01N 39°44' W 075°29'0 0.0
2018-Feb-15 14:30N 39°44' W 075°29'0 0.0
2018-Feb-15 14:01N 39°44' W 075°29'0 0.1
2018-Feb-15 13:31N 39°44' W 075°29'0 0.0
2018-Feb-15 13:01N 39°44' W 075°29'0 0.7
2018-Feb-15 12:31N 39°44' W 075°29'2 3.2
2018-Feb-15 12:01N 39°43' W 075°31'0 0.0
2018-Feb-15 11:31N 39°43' W 075°31'0 0.0
2018-Feb-15 11:00N 39°43' W 075°31'0 0.0
2018-Feb-15 10:31N 39°43' W 075°31'0 0.0
2018-Feb-15 10:00N 39°43' W 075°31'0 0.0
2018-Feb-15 09:30N 39°43' W 075°31'0 0.0
2018-Feb-15 09:00N 39°43' W 075°31'0 0.0
2018-Feb-15 08:30N 39°43' W 075°31'0 0.0
2018-Feb-15 08:00N 39°43' W 075°31'0 0.0
2018-Feb-15 07:30N 39°43' W 075°31'0 0.0
2018-Feb-15 07:00N 39°43' W 075°31'0 0.0
2018-Feb-15 06:30N 39°43' W 075°31'0 0.0
2018-Feb-15 06:01N 39°43' W 075°31'0 0.0
2018-Feb-15 05:31N 39°43' W 075°31'0 0.0
2018-Feb-15 05:00N 39°43' W 075°31'0 0.0
2018-Feb-15 04:31N 39°43' W 075°31'1 2.9
2018-Feb-15 04:00N 39°44' W 075°29'3 6.9
2018-Feb-15 03:30N 39°41' W 075°31'4 8.1
2018-Feb-15 03:01N 39°37' W 075°35'4 8.3
2018-Feb-15 02:30N 39°33' W 075°32'4 7.7
2018-Feb-15 02:00N 39°30' W 075°34'4 7.2
2018-Feb-15 01:30N 39°26' W 075°33'4 7.7
2018-Feb-15 01:00N 39°23' W 075°29'4 7.0
2018-Feb-15 00:31N 39°21' W 075°26'3 7.0
2018-Feb-15 00:01N 39°18' W 075°23'3 6.3
2018-Feb-14 23:30N 39°16' W 075°21'3 5.9
2018-Feb-14 23:00N 39°13' W 075°18'3 6.3
2018-Feb-14 22:30N 39°11' W 075°16'3 5.9
2018-Feb-14 21:58N 39°08' W 075°15'21 3.1
2018-Feb-14 15:07N 38°48' W 075°06'0 1.7
2018-Feb-14 14:54N 38°48' W 075°06'1 1.7
2018-Feb-14 14:15N 38°49' W 075°05'2 3.2
2018-Feb-14 13:45N 38°50' W 075°05'4 3.5
2018-Feb-14 12:32N 38°47' W 075°10'0 3.2
2018-Feb-14 12:31N 38°47' W 075°10'0 0.2
2018-Feb-14 10:18N 38°48' W 075°10'11 2.8
2018-Feb-14 06:27N 38°58' W 075°08'5 3.8
2018-Feb-14 05:07N 39°03' W 075°10'1 4.6
2018-Feb-14 05:00N 39°03' W 075°11'2 4.9
2018-Feb-14 04:30N 39°05' W 075°12'2 4.6
2018-Feb-14 04:00N 39°07' W 075°14'2 4.2
2018-Feb-14 03:30N 39°09' W 075°15'2 3.8
2018-Feb-14 03:00N 39°11' W 075°16'2 3.4
2018-Feb-14 02:29N 39°13' W 075°17'1 2.8
2018-Feb-14 02:00N 39°14' W 075°18'1 2.6
2018-Feb-14 01:30N 39°15' W 075°19'1 2.2
2018-Feb-14 01:00N 39°16' W 075°20'1 2.1
2018-Feb-14 00:30N 39°16' W 075°21'1 2.5
2018-Feb-14 00:00N 39°17' W 075°22'1 2.4
2018-Feb-13 23:30N 39°18' W 075°23'1 2.5
2018-Feb-13 23:00N 39°19' W 075°24'1 2.4
2018-Feb-13 22:30N 39°20' W 075°25'2 3.9
2018-Feb-13 22:00N 39°21' W 075°27'2 4.1
2018-Feb-13 21:30N 39°23' W 075°29'3 4.9
2018-Feb-13 21:00N 39°25' W 075°31'3 5.1
2018-Feb-13 20:30N 39°27' W 075°33'2 4.3
2018-Feb-13 20:00N 39°29' W 075°34'3 6.8
2018-Feb-13 19:30N 39°32' W 075°33'3 5.4
2018-Feb-13 19:00N 39°35' W 075°33'3 5.5
2018-Feb-13 18:30N 39°37' W 075°35'2 4.9
2018-Feb-13 18:00N 39°39' W 075°33'2 4.3
2018-Feb-13 17:30N 39°41' W 075°31'2 3.8
2018-Feb-13 17:00N 39°43' W 075°30'1 2.3
2018-Feb-13 16:29N 39°44' W 075°29'1 2.3
2018-Feb-13 16:00N 39°43' W 075°30'1 2.2
2018-Feb-13 15:30N 39°44' W 075°29'0 0.1
2018-Feb-13 15:00N 39°44' W 075°29'0 0.6
2018-Feb-13 14:30N 39°44' W 075°29'1 1.0
2018-Feb-13 14:00N 39°44' W 075°29'0 0.5
2018-Feb-13 13:30N 39°44' W 075°29'0 0.2
2018-Feb-13 13:00N 39°44' W 075°29'1 1.0
2018-Feb-13 12:30N 39°44' W 075°29'2 2.9
2018-Feb-13 11:59N 39°43' W 075°31'0 0.0
2018-Feb-13 11:30N 39°43' W 075°31'2 3.1
2018-Feb-13 11:00N 39°44' W 075°29'0 0.0
2018-Feb-13 10:30N 39°44' W 075°29'0 0.0
2018-Feb-13 10:00N 39°44' W 075°29'0 0.0
2018-Feb-13 09:30N 39°44' W 075°29'0 0.0
2018-Feb-13 09:00N 39°44' W 075°29'0 0.0
2018-Feb-13 08:30N 39°44' W 075°29'0 0.0
2018-Feb-13 08:00N 39°44' W 075°29'0 0.0
2018-Feb-13 07:31N 39°44' W 075°29'0 0.0
2018-Feb-13 07:00N 39°44' W 075°29'0 0.0
2018-Feb-13 06:30N 39°44' W 075°29'0 0.0
2018-Feb-13 06:00N 39°44' W 075°29'0 0.0
2018-Feb-13 05:30N 39°44' W 075°29'0 0.0
2018-Feb-13 05:00N 39°44' W 075°29'0 0.0
2018-Feb-13 04:30N 39°44' W 075°29'0 0.0
2018-Feb-13 04:01N 39°44' W 075°29'3 6.1
2018-Feb-13 03:30N 39°41' W 075°31'4 8.2
2018-Feb-13 03:00N 39°38' W 075°34'4 7.9
2018-Feb-13 02:30N 39°34' W 075°33'3 6.5
2018-Feb-13 02:00N 39°33' W 075°37'3 6.7
2018-Feb-13 01:30N 39°33' W 075°42'4 7.3
2018-Feb-13 01:00N 39°32' W 075°46'4 7.8
2018-Feb-13 00:30N 39°32' W 075°51'4 7.8
2018-Feb-13 00:00N 39°30' W 075°56'1 2.4
2018-Feb-12 23:30N 39°30' W 075°54'1 2.8
2018-Feb-12 23:00N 39°31' W 075°53'1 2.5
2018-Feb-12 22:30N 39°32' W 075°52'1 2.1
2018-Feb-12 21:59N 39°32' W 075°50'1 2.1
2018-Feb-12 21:30N 39°32' W 075°49'1 2.3
2018-Feb-12 21:00N 39°32' W 075°47'1 2.8
2018-Feb-12 20:30N 39°32' W 075°46'2 3.2
2018-Feb-12 20:00N 39°33' W 075°44'2 3.7
2018-Feb-12 19:30N 39°33' W 075°41'2 3.9
2018-Feb-12 19:00N 39°33' W 075°39'2 4.4
2018-Feb-12 18:30N 39°33' W 075°36'2 4.5
2018-Feb-12 18:00N 39°34' W 075°33'3 5.5
2018-Feb-12 17:30N 39°36' W 075°34'2 4.8
2018-Feb-12 17:00N 39°39' W 075°33'2 4.7
2018-Feb-12 16:30N 39°40' W 075°32'2 4.0
2018-Feb-12 16:00N 39°42' W 075°31'2 3.5
2018-Feb-12 15:30N 39°44' W 075°29'0 0.3
2018-Feb-12 15:00N 39°43' W 075°29'0 0.2
2018-Feb-12 14:30N 39°44' W 075°29'0 0.1
2018-Feb-12 14:00N 39°44' W 075°29'0 0.0
2018-Feb-12 13:31N 39°44' W 075°29'0 0.1
2018-Feb-12 13:01N 39°44' W 075°29'0 0.1
2018-Feb-12 12:31N 39°44' W 075°29'2 3.1
2018-Feb-12 12:00N 39°43' W 075°31'0 0.0
2018-Feb-12 11:30N 39°43' W 075°31'2 3.1
2018-Feb-12 11:00N 39°44' W 075°29'0 0.0
2018-Feb-12 10:30N 39°44' W 075°29'0 0.0
2018-Feb-12 10:00N 39°44' W 075°29'0 0.0
2018-Feb-12 09:30N 39°44' W 075°29'0 0.0
2018-Feb-12 09:00N 39°44' W 075°29'0 0.0
2018-Feb-12 08:30N 39°44' W 075°29'0 0.0
2018-Feb-12 08:00N 39°44' W 075°29'0 0.0
2018-Feb-12 07:30N 39°44' W 075°29'0 0.0
2018-Feb-12 07:00N 39°44' W 075°29'0 0.0
2018-Feb-12 06:30N 39°44' W 075°29'  
Track history (hours):
 
Tides and Currents Weather Stations Pressure Air Temp Water Temp Dewpoint Dewpoint Depression Visibility Wind Speed Wind Dir Waves Ship Positions

Brangus

Owner: Great Lakes Dredge & Dock Company, Oak Brook, IL. More information available from US FCC via Universal Licensing System and Coast Guard Vessel Documentation Center.

Last reported at 2018-Feb-22 06:28 UTC. Time now 2018-Feb-22 06:50 UTC.
Position N 36°46' W 076°18'.

; draft 3 m.

MMSI: 366899270.

Date/timePositionNaut miles runAvg speedWind from/ knotsBaromVisibWave heightAir tempDewpointWater temp
2018-Feb-22 06:28N 36°46' W 076°18'0 0.0
2018-Feb-22 05:59N 36°46' W 076°18'0 0.0
2018-Feb-22 05:29N 36°46' W 076°18'0 0.0
2018-Feb-22 04:59N 36°46' W 076°18'0 0.0
2018-Feb-22 04:29N 36°46' W 076°18'0 0.0
2018-Feb-22 03:59N 36°46' W 076°18'0 0.0
2018-Feb-22 03:30N 36°46' W 076°18'0 0.0
2018-Feb-22 02:55N 36°46' W 076°18'0 0.0
2018-Feb-22 02:29N 36°46' W 076°18'0 0.0
2018-Feb-22 01:58N 36°46' W 076°18'0 0.0
2018-Feb-22 01:29N 36°46' W 076°18'0 0.0
2018-Feb-22 00:59N 36°46' W 076°18'0 0.0
2018-Feb-22 00:30N 36°46' W 076°18'0 0.0
2018-Feb-22 00:00N 36°46' W 076°18'0 0.0
2018-Feb-21 23:30N 36°46' W 076°18'0 0.0
2018-Feb-21 23:00N 36°46' W 076°18'0 0.0
2018-Feb-21 22:30N 36°46' W 076°18'0 0.0
2018-Feb-21 22:00N 36°46' W 076°18'0 0.0
2018-Feb-21 21:29N 36°46' W 076°18'0 0.0
2018-Feb-21 20:59N 36°46' W 076°18'0 0.9
2018-Feb-21 20:30N 36°45' W 076°18'0 0.9
2018-Feb-21 20:00N 36°46' W 076°18'0 0.0
2018-Feb-21 19:30N 36°46' W 076°18'0 0.0
2018-Feb-21 19:00N 36°46' W 076°18'0 0.0
2018-Feb-21 18:30N 36°46' W 076°18'0 0.1
2018-Feb-21 18:00N 36°46' W 076°18'0 0.1
2018-Feb-21 17:31N 36°46' W 076°18'0 0.0
2018-Feb-21 17:00N 36°46' W 076°18'0 0.2
2018-Feb-21 16:30N 36°46' W 076°18'0 0.4
2018-Feb-21 16:00N 36°46' W 076°18'0 0.6
2018-Feb-21 15:30N 36°46' W 076°18'0 0.5
2018-Feb-21 15:00N 36°46' W 076°18'0 0.1
2018-Feb-21 14:30N 36°46' W 076°18'0 0.1
2018-Feb-21 14:00N 36°46' W 076°18'0 0.0
2018-Feb-21 13:30N 36°46' W 076°18'0 0.0
2018-Feb-21 13:00N 36°46' W 076°18'0 0.2
2018-Feb-21 12:30N 36°46' W 076°18'1 1.2
2018-Feb-21 12:00N 36°45' W 076°18'0 0.9
2018-Feb-21 11:28N 36°46' W 076°18'0 0.0
2018-Feb-21 10:58N 36°46' W 076°18'0 0.0
2018-Feb-21 10:25N 36°46' W 076°18'0 0.0
2018-Feb-21 09:58N 36°46' W 076°18'0 0.0
2018-Feb-21 09:26N 36°46' W 076°18'0 0.0
2018-Feb-21 09:00N 36°46' W 076°18'0 0.0
2018-Feb-21 08:29N 36°46' W 076°18'0 0.0
2018-Feb-21 08:00N 36°46' W 076°18'0 0.0
2018-Feb-21 07:30N 36°46' W 076°18'0 0.0
2018-Feb-21 06:55N 36°46' W 076°18'0 0.0
2018-Feb-21 06:23N 36°46' W 076°18'0 0.0
2018-Feb-21 05:59N 36°46' W 076°18'0 0.0
2018-Feb-21 05:28N 36°46' W 076°18'0 0.0
2018-Feb-21 04:54N 36°46' W 076°18'0 0.0
2018-Feb-21 04:30N 36°46' W 076°18'0 0.0
2018-Feb-21 04:00N 36°46' W 076°18'0 0.0
2018-Feb-21 03:27N 36°46' W 076°18'0 0.0
2018-Feb-21 03:00N 36°46' W 076°18'0 0.0
2018-Feb-21 02:30N 36°46' W 076°18'2 3.9
2018-Feb-21 02:00N 36°48' W 076°18'3 5.4
2018-Feb-21 01:30N 36°50' W 076°16'0 0.7
2018-Feb-21 01:00N 36°50' W 076°16'0 0.0
2018-Feb-21 00:30N 36°50' W 076°16'0 0.0
2018-Feb-21 00:00N 36°50' W 076°16'0 0.0
2018-Feb-20 23:30N 36°50' W 076°16'0 0.0
2018-Feb-20 23:00N 36°50' W 076°16'0 0.0
2018-Feb-20 22:30N 36°50' W 076°16'0 0.0
2018-Feb-20 22:00N 36°50' W 076°16'1 2.5
2018-Feb-20 21:30N 36°50' W 076°18'3 6.8
2018-Feb-20 21:00N 36°46' W 076°18'1 1.2
2018-Feb-20 20:30N 36°46' W 076°18'0 0.0
2018-Feb-20 20:00N 36°46' W 076°18'0 0.0
2018-Feb-20 19:30N 36°46' W 076°18'0 0.0
2018-Feb-20 19:00N 36°46' W 076°18'0 0.0
2018-Feb-20 18:30N 36°46' W 076°18'0 0.0
2018-Feb-20 18:00N 36°46' W 076°18'0 0.0
2018-Feb-20 17:30N 36°46' W 076°18'0 0.0
2018-Feb-20 17:00N 36°46' W 076°18'0 0.0
2018-Feb-20 16:30N 36°46' W 076°18'0 0.0
2018-Feb-20 16:00N 36°46' W 076°18'0 0.0
2018-Feb-20 15:30N 36°46' W 076°18'0 0.0
2018-Feb-20 15:00N 36°46' W 076°18'0 0.0
2018-Feb-20 14:29N 36°46' W 076°18'0 0.0
2018-Feb-20 14:00N 36°46' W 076°18'0 0.0
2018-Feb-20 13:30N 36°46' W 076°18'0 0.0
2018-Feb-20 13:00N 36°46' W 076°18'0 0.0
2018-Feb-20 12:30N 36°46' W 076°18'0 1.0
2018-Feb-20 12:00N 36°45' W 076°18'0 0.9
2018-Feb-20 11:27N 36°46' W 076°18'0 0.0
2018-Feb-20 11:00N 36°46' W 076°18'0 0.0
2018-Feb-20 10:29N 36°46' W 076°18'0 0.0
2018-Feb-20 09:58N 36°46' W 076°18'0 0.0
2018-Feb-20 09:30N 36°46' W 076°18'0 0.0
2018-Feb-20 08:59N 36°46' W 076°18'0 0.0
2018-Feb-20 08:27N 36°46' W 076°18'0 0.0
2018-Feb-20 08:00N 36°46' W 076°18'0 0.0
2018-Feb-20 07:29N 36°46' W 076°18'0 0.0
2018-Feb-20 06:59N 36°46' W 076°18'0 0.0
2018-Feb-20 06:30N 36°46' W 076°18'0 0.0
2018-Feb-20 06:00N 36°46' W 076°18'0 0.0
2018-Feb-20 05:28N 36°46' W 076°18'0 0.0
2018-Feb-20 04:57N 36°46' W 076°18'0 0.0
2018-Feb-20 04:29N 36°46' W 076°18'0 0.0
2018-Feb-20 03:59N 36°46' W 076°18'0 0.0
2018-Feb-20 03:29N 36°46' W 076°18'0 0.0
2018-Feb-20 02:59N 36°46' W 076°18'0 0.0
2018-Feb-20 02:28N 36°46' W 076°18'0 0.0
2018-Feb-20 01:58N 36°46' W 076°18'0 0.0
2018-Feb-20 01:30N 36°46' W 076°18'0 0.0
2018-Feb-20 01:00N 36°46' W 076°18'0 0.0
2018-Feb-20 00:26N 36°46' W 076°18'0 0.0
2018-Feb-20 00:00N 36°46' W 076°18'0 0.0
2018-Feb-19 23:28N 36°46' W 076°18'0 0.0
2018-Feb-19 23:00N 36°46' W 076°18'0 0.0
2018-Feb-19 22:29N 36°46' W 076°18'0 0.0
2018-Feb-19 21:53N 36°46' W 076°18'0 0.0
2018-Feb-19 21:30N 36°46' W 076°18'0 0.6
2018-Feb-19 21:00N 36°46' W 076°18'0 0.6
2018-Feb-19 20:30N 36°46' W 076°18'0 0.0
2018-Feb-19 20:00N 36°46' W 076°18'0 0.0
2018-Feb-19 19:30N 36°46' W 076°18'0 0.8
2018-Feb-19 19:00N 36°45' W 076°18'0 0.8
2018-Feb-19 18:30N 36°46' W 076°18'0 0.0
2018-Feb-19 18:00N 36°46' W 076°18'0 0.0
2018-Feb-19 17:30N 36°46' W 076°18'1 1.9
2018-Feb-19 17:00N 36°45' W 076°18'0 0.0
2018-Feb-19 16:29N 36°45' W 076°18'1 1.1
2018-Feb-19 16:00N 36°46' W 076°18'1 1.1
2018-Feb-19 15:30N 36°45' W 076°18'0 0.0
2018-Feb-19 15:00N 36°45' W 076°18'0 0.0
2018-Feb-19 14:30N 36°45' W 076°18'0 0.0
2018-Feb-19 14:00N 36°45' W 076°18'0 0.0
2018-Feb-19 13:30N 36°45' W 076°18'0 0.0
2018-Feb-19 12:57N 36°45' W 076°18'0 0.8
2018-Feb-19 12:30N 36°45' W 076°18'1 2.6
2018-Feb-19 12:00N 36°47' W 076°18'0 0.1
2018-Feb-19 11:30N 36°47' W 076°18'2 3.0
2018-Feb-19 11:00N 36°48' W 076°18'2 4.8
2018-Feb-19 10:30N 36°50' W 076°16'0 0.2
2018-Feb-19 10:00N 36°50' W 076°16'0 0.0
2018-Feb-19 09:30N 36°50' W 076°16'0 0.0
2018-Feb-19 09:00N 36°50' W 076°16'0 0.0
2018-Feb-19 08:30N 36°50' W 076°16'0 0.0
2018-Feb-19 08:00N 36°50' W 076°16'0 0.0
2018-Feb-19 07:30N 36°50' W 076°16'0 0.0
2018-Feb-19 07:00N 36°50' W 076°16'0 0.0
2018-Feb-19 06:30N 36°50' W 076°16'0 0.0
2018-Feb-19 06:00N 36°50' W 076°16'0 0.0
2018-Feb-19 05:30N 36°50' W 076°16'0 0.0
2018-Feb-19 05:00N 36°50' W 076°16'0 0.0
2018-Feb-19 04:29N 36°50' W 076°16'0 0.0
2018-Feb-19 03:59N 36°50' W 076°16'0 0.0
2018-Feb-19 03:30N 36°50' W 076°16'0 0.0
2018-Feb-19 03:00N 36°50' W 076°16'0 0.0
2018-Feb-19 02:30N 36°50' W 076°16'0 0.0
2018-Feb-19 02:00N 36°50' W 076°16'0 0.0
2018-Feb-19 01:30N 36°50' W 076°16'0 0.0
2018-Feb-19 01:00N 36°50' W 076°16'0 0.0
2018-Feb-19 00:30N 36°50' W 076°16'0 0.0
2018-Feb-19 00:00N 36°50' W 076°16'0 0.0
2018-Feb-18 23:30N 36°50' W 076°16'0 0.0
2018-Feb-18 23:00N 36°50' W 076°16'0 0.0
2018-Feb-18 22:30N 36°50' W 076°16'0 0.0
2018-Feb-18 22:00N 36°50' W 076°16'0 0.0
2018-Feb-18 21:30N 36°50' W 076°16'0 0.0
2018-Feb-18 21:00N 36°50' W 076°16'0 0.0
2018-Feb-18 20:30N 36°50' W 076°16'0 0.0
2018-Feb-18 19:59N 36°50' W 076°16'1 1.4
2018-Feb-18 19:30N 36°50' W 076°17'3 6.4
2018-Feb-18 19:00N 36°47' W 076°18'2 3.6
2018-Feb-18 18:30N 36°46' W 076°18'0 0.5
2018-Feb-18 18:00N 36°46' W 076°18'1 1.7
2018-Feb-18 17:30N 36°45' W 076°18'0 0.0
2018-Feb-18 17:00N 36°45' W 076°18'0 0.0
2018-Feb-18 16:30N 36°45' W 076°18'0 0.5
2018-Feb-18 16:00N 36°45' W 076°18'0 0.3
2018-Feb-18 15:30N 36°45' W 076°18'0 0.2
2018-Feb-18 15:00N 36°45' W 076°18'1 1.0
2018-Feb-18 14:30N 36°45' W 076°18'0 0.7
2018-Feb-18 14:00N 36°45' W 076°18'0 0.4
2018-Feb-18 13:30N 36°45' W 076°18'0 0.0
2018-Feb-18 13:00N 36°45' W 076°18'1 1.5
2018-Feb-18 12:30N 36°46' W 076°18'1 1.4
2018-Feb-18 12:00N 36°45' W 076°18'1 1.4
2018-Feb-18 11:30N 36°46' W 076°18'0 0.0
2018-Feb-18 11:00N 36°46' W 076°18'0 0.0
2018-Feb-18 10:30N 36°46' W 076°18'0 0.0
2018-Feb-18 10:00N 36°46' W 076°18'0 0.0
2018-Feb-18 09:30N 36°46' W 076°18'0 0.0
2018-Feb-18 09:00N 36°46' W 076°18'0 0.0
2018-Feb-18 08:30N 36°46' W 076°18'0 0.0
2018-Feb-18 08:00N 36°46' W 076°18'0 0.0
2018-Feb-18 07:30N 36°46' W 076°18'0 0.0
2018-Feb-18 07:00N 36°46' W 076°18'0 0.0
2018-Feb-18 06:30N 36°46' W 076°18'0 0.0
2018-Feb-18 06:01N 36°46' W 076°18'0 0.0
2018-Feb-18 05:30N 36°46' W 076°18'0 0.0
2018-Feb-18 05:00N 36°46' W 076°18'0 0.0
2018-Feb-18 04:30N 36°46' W 076°18'0 0.5
2018-Feb-18 04:00N 36°46' W 076°18'0 0.9
2018-Feb-18 03:31N 36°47' W 076°18'0 0.1
2018-Feb-18 03:01N 36°47' W 076°18'0 0.7
2018-Feb-18 02:31N 36°47' W 076°18'2 4.5
2018-Feb-18 02:01N 36°49' W 076°17'2 3.2
2018-Feb-18 01:30N 36°50' W 076°17'1 1.0
2018-Feb-18 01:00N 36°50' W 076°16'2 4.7
2018-Feb-18 00:30N 36°48' W 076°17'2 4.4
2018-Feb-18 00:01N 36°46' W 076°18'0 0.3
2018-Feb-17 23:30N 36°46' W 076°18'0 0.8
2018-Feb-17 23:01N 36°47' W 076°18'0 0.4
2018-Feb-17 22:31N 36°47' W 076°18'2 4.9
2018-Feb-17 22:01N 36°49' W 076°17'2 3.1
2018-Feb-17 21:30N 36°50' W 076°16'0 0.0
2018-Feb-17 21:01N 36°50' W 076°16'0 0.0
2018-Feb-17 20:31N 36°50' W 076°16'0 0.0
2018-Feb-17 20:01N 36°50' W 076°16'0 0.0
2018-Feb-17 19:30N 36°50' W 076°16'0 0.0
2018-Feb-17 18:02N 36°50' W 076°16'0 0.0
2018-Feb-17 18:01N 36°50' W 076°16'0 0.0
2018-Feb-17 17:31N 36°50' W 076°16'0 0.0
2018-Feb-17 17:00N 36°50' W 076°16'0 0.0
2018-Feb-17 16:30N 36°50' W 076°16'0 0.0
2018-Feb-17 15:57N 36°50' W 076°16'0 0.0
2018-Feb-17 15:31N 36°50' W 076°16'0 0.0
2018-Feb-17 15:01N 36°50' W 076°16'0 0.0
2018-Feb-17 14:30N 36°50' W 076°16'0 0.0
2018-Feb-17 14:00N 36°50' W 076°16'0 0.0
2018-Feb-17 13:30N 36°50' W 076°16'0 0.0
2018-Feb-17 13:01N 36°50' W 076°16'0 0.0
2018-Feb-17 12:31N 36°50' W 076°16'0 0.0
2018-Feb-17 12:00N 36°50' W 076°16'0 0.7
2018-Feb-17 11:30N 36°50' W 076°17'1 2.1
2018-Feb-17 11:01N 36°51' W 076°18'117 5.1
2018-Feb-16 12:07N 38°47' W 076°27'1 5.7
2018-Feb-16 12:00N 38°48' W 076°27'3 5.1
2018-Feb-16 11:30N 38°51' W 076°26'3 5.3
2018-Feb-16 11:00N 38°53' W 076°26'3 5.1
2018-Feb-16 10:30N 38°56' W 076°25'3 5.1
2018-Feb-16 09:56N 38°58' W 076°24'2 5.2
2018-Feb-16 09:30N 39°00' W 076°22'15 5.8
2018-Feb-16 06:56N 39°14' W 076°15'3 7.1
2018-Feb-16 06:30N 39°17' W 076°14'4 7.1
2018-Feb-16 06:00N 39°20' W 076°12'3 6.9
2018-Feb-16 05:30N 39°22' W 076°08'3 6.7
2018-Feb-16 05:00N 39°24' W 076°04'3 6.2
2018-Feb-16 04:30N 39°26' W 076°01'2 3.4
2018-Feb-16 04:00N 39°27' W 075°59'1 1.1
2018-Feb-16 03:30N 39°27' W 075°59'3 7.1
2018-Feb-16 03:01N 39°30' W 075°56'3 6.6
2018-Feb-16 02:30N 39°32' W 075°52'3 5.9
2018-Feb-16 02:00N 39°32' W 075°48'3 5.9
2018-Feb-16 01:30N 39°32' W 075°45'3 5.7
2018-Feb-16 01:00N 39°33' W 075°41'3 5.5
2018-Feb-16 00:30N 39°33' W 075°38'3 5.7
2018-Feb-16 00:00N 39°34' W 075°34'3 7.1
2018-Feb-15 23:30N 39°37' W 075°35'4 8.8
2018-Feb-15 23:00N 39°41' W 075°31'4 7.8
2018-Feb-15 22:30N 39°44' W 075°29'0 0.0
2018-Feb-15 22:00N 39°44' W 075°29'0 0.0
2018-Feb-15 21:30N 39°44' W 075°29'0 0.0
2018-Feb-15 21:00N 39°44' W 075°29'0 0.0
2018-Feb-15 20:31N 39°44' W 075°29'0 0.0
2018-Feb-15 20:01N 39°44' W 075°29'0 0.0
2018-Feb-15 19:30N 39°44' W 075°29'0 0.0
2018-Feb-15 19:01N 39°44' W 075°29'0 0.0
2018-Feb-15 18:30N 39°44' W 075°29'0 0.0
2018-Feb-15 18:01N 39°44' W 075°29'0 0.0
2018-Feb-15 17:31N 39°44' W 075°29'0 0.0
2018-Feb-15 17:00N 39°44' W 075°29'0 0.0
2018-Feb-15 16:30N 39°44' W 075°29'1 1.5
2018-Feb-15 16:01N 39°43' W 075°30'0 0.6
2018-Feb-15 15:29N 39°44' W 075°29'0 0.9
2018-Feb-15 15:01N 39°44' W 075°29'0 0.0
2018-Feb-15 14:30N 39°44' W 075°29'0 0.0
2018-Feb-15 14:01N 39°44' W 075°29'0 0.1
2018-Feb-15 13:31N 39°44' W 075°29'0 0.0
2018-Feb-15 13:01N 39°44' W 075°29'0 0.7
2018-Feb-15 12:31N 39°44' W 075°29'2 3.2
2018-Feb-15 12:01N 39°43' W 075°31'0 0.0
2018-Feb-15 11:31N 39°43' W 075°31'0 0.0
2018-Feb-15 11:00N 39°43' W 075°31'0 0.0
2018-Feb-15 10:31N 39°43' W 075°31'0 0.0
2018-Feb-15 10:00N 39°43' W 075°31'0 0.0
2018-Feb-15 09:30N 39°43' W 075°31'0 0.0
2018-Feb-15 09:00N 39°43' W 075°31'0 0.0
2018-Feb-15 08:30N 39°43' W 075°31'0 0.0
2018-Feb-15 08:00N 39°43' W 075°31'0 0.0
2018-Feb-15 07:30N 39°43' W 075°31'0 0.0
2018-Feb-15 07:00N 39°43' W 075°31'0 0.0
2018-Feb-15 06:30N 39°43' W 075°31'0 0.0
2018-Feb-15 06:01N 39°43' W 075°31'0 0.0
2018-Feb-15 05:31N 39°43' W 075°31'0 0.0
2018-Feb-15 05:00N 39°43' W 075°31'0 0.0
2018-Feb-15 04:31N 39°43' W 075°31'1 2.9
2018-Feb-15 04:00N 39°44' W 075°29'3 6.9
2018-Feb-15 03:30N 39°41' W 075°31'4 8.1
2018-Feb-15 03:01N 39°37' W 075°35'4 8.3
2018-Feb-15 02:30N 39°33' W 075°32'4 7.7
2018-Feb-15 02:00N 39°30' W 075°34'4 7.2
2018-Feb-15 01:30N 39°26' W 075°33'4 7.7
2018-Feb-15 01:00N 39°23' W 075°29'4 7.0
2018-Feb-15 00:31N 39°21' W 075°26'3 7.0
2018-Feb-15 00:01N 39°18' W 075°23'3 6.3
2018-Feb-14 23:30N 39°16' W 075°21'3 5.9
2018-Feb-14 23:00N 39°13' W 075°18'3 6.3
2018-Feb-14 22:30N 39°11' W 075°16'3 5.9
2018-Feb-14 21:58N 39°08' W 075°15'21 3.1
2018-Feb-14 15:07N 38°48' W 075°06'0 1.7
2018-Feb-14 14:54N 38°48' W 075°06'1 1.7
2018-Feb-14 14:15N 38°49' W 075°05'2 3.2
2018-Feb-14 13:45N 38°50' W 075°05'4 3.5
2018-Feb-14 12:32N 38°47' W 075°10'0 3.2
2018-Feb-14 12:31N 38°47' W 075°10'0 0.2
2018-Feb-14 10:18N 38°48' W 075°10'11 2.8
2018-Feb-14 06:27N 38°58' W 075°08'5 3.8
2018-Feb-14 05:07N 39°03' W 075°10'1 4.6
2018-Feb-14 05:00N 39°03' W 075°11'2 4.9
2018-Feb-14 04:30N 39°05' W 075°12'2 4.6
2018-Feb-14 04:00N 39°07' W 075°14'2 4.2
2018-Feb-14 03:30N 39°09' W 075°15'2 3.8
2018-Feb-14 03:00N 39°11' W 075°16'2 3.4
2018-Feb-14 02:29N 39°13' W 075°17'1 2.8
2018-Feb-14 02:00N 39°14' W 075°18'1 2.6
2018-Feb-14 01:30N 39°15' W 075°19'1 2.2
2018-Feb-14 01:00N 39°16' W 075°20'1 2.1
2018-Feb-14 00:30N 39°16' W 075°21'1 2.5
2018-Feb-14 00:00N 39°17' W 075°22'1 2.4
2018-Feb-13 23:30N 39°18' W 075°23'1 2.5
2018-Feb-13 23:00N 39°19' W 075°24'1 2.4
2018-Feb-13 22:30N 39°20' W 075°25'2 3.9
2018-Feb-13 22:00N 39°21' W 075°27'2 4.1
2018-Feb-13 21:30N 39°23' W 075°29'3 4.9
2018-Feb-13 21:00N 39°25' W 075°31'3 5.1
2018-Feb-13 20:30N 39°27' W 075°33'2 4.3
2018-Feb-13 20:00N 39°29' W 075°34'3 6.8
2018-Feb-13 19:30N 39°32' W 075°33'3 5.4
2018-Feb-13 19:00N 39°35' W 075°33'3 5.5
2018-Feb-13 18:30N 39°37' W 075°35'2 4.9
2018-Feb-13 18:00N 39°39' W 075°33'2 4.3
2018-Feb-13 17:30N 39°41' W 075°31'2 3.8
2018-Feb-13 17:00N 39°43' W 075°30'1 2.3
2018-Feb-13 16:29N 39°44' W 075°29'1 2.3
2018-Feb-13 16:00N 39°43' W 075°30'1 2.2
2018-Feb-13 15:30N 39°44' W 075°29'0 0.1
2018-Feb-13 15:00N 39°44' W 075°29'0 0.6
2018-Feb-13 14:30N 39°44' W 075°29'1 1.0
2018-Feb-13 14:00N 39°44' W 075°29'0 0.5
2018-Feb-13 13:30N 39°44' W 075°29'0 0.2
2018-Feb-13 13:00N 39°44' W 075°29'1 1.0
2018-Feb-13 12:30N 39°44' W 075°29'2 2.9
2018-Feb-13 11:59N 39°43' W 075°31'0 0.0
2018-Feb-13 11:30N 39°43' W 075°31'2 3.1
2018-Feb-13 11:00N 39°44' W 075°29'0 0.0
2018-Feb-13 10:30N 39°44' W 075°29'0 0.0
2018-Feb-13 10:00N 39°44' W 075°29'0 0.0
2018-Feb-13 09:30N 39°44' W 075°29'0 0.0
2018-Feb-13 09:00N 39°44' W 075°29'0 0.0
2018-Feb-13 08:30N 39°44' W 075°29'0 0.0
2018-Feb-13 08:00N 39°44' W 075°29'0 0.0
2018-Feb-13 07:31N 39°44' W 075°29'0 0.0
2018-Feb-13 07:00N 39°44' W 075°29'0 0.0
2018-Feb-13 06:30N 39°44' W 075°29'0 0.0
2018-Feb-13 06:00N 39°44' W 075°29'0 0.0
2018-Feb-13 05:30N 39°44' W 075°29'0 0.0
2018-Feb-13 05:00N 39°44' W 075°29'0 0.0
2018-Feb-13 04:30N 39°44' W 075°29'0 0.0
2018-Feb-13 04:01N 39°44' W 075°29'3 6.1
2018-Feb-13 03:30N 39°41' W 075°31'4 8.2
2018-Feb-13 03:00N 39°38' W 075°34'4 7.9
2018-Feb-13 02:30N 39°34' W 075°33'3 6.5
2018-Feb-13 02:00N 39°33' W 075°37'3 6.7
2018-Feb-13 01:30N 39°33' W 075°42'4 7.3
2018-Feb-13 01:00N 39°32' W 075°46'4 7.8
2018-Feb-13 00:30N 39°32' W 075°51'4 7.8
2018-Feb-13 00:00N 39°30' W 075°56'1 2.4
2018-Feb-12 23:30N 39°30' W 075°54'1 2.8
2018-Feb-12 23:00N 39°31' W 075°53'1 2.5
2018-Feb-12 22:30N 39°32' W 075°52'1 2.1
2018-Feb-12 21:59N 39°32' W 075°50'1 2.1
2018-Feb-12 21:30N 39°32' W 075°49'1 2.3
2018-Feb-12 21:00N 39°32' W 075°47'1 2.8
2018-Feb-12 20:30N 39°32' W 075°46'2 3.2
2018-Feb-12 20:00N 39°33' W 075°44'2 3.7
2018-Feb-12 19:30N 39°33' W 075°41'2 3.9
2018-Feb-12 19:00N 39°33' W 075°39'2 4.4
2018-Feb-12 18:30N 39°33' W 075°36'2 4.5
2018-Feb-12 18:00N 39°34' W 075°33'3 5.5
2018-Feb-12 17:30N 39°36' W 075°34'2 4.8
2018-Feb-12 17:00N 39°39' W 075°33'2 4.7
2018-Feb-12 16:30N 39°40' W 075°32'2 4.0
2018-Feb-12 16:00N 39°42' W 075°31'2 3.5
2018-Feb-12 15:30N 39°44' W 075°29'0 0.3
2018-Feb-12 15:00N 39°43' W 075°29'0 0.2
2018-Feb-12 14:30N 39°44' W 075°29'0 0.1
2018-Feb-12 14:00N 39°44' W 075°29'0 0.0
2018-Feb-12 13:31N 39°44' W 075°29'0 0.1
2018-Feb-12 13:01N 39°44' W 075°29'0 0.1
2018-Feb-12 12:31N 39°44' W 075°29'2 3.1
2018-Feb-12 12:00N 39°43' W 075°31'0 0.0
2018-Feb-12 11:30N 39°43' W 075°31'2 3.1
2018-Feb-12 11:00N 39°44' W 075°29'0 0.0
2018-Feb-12 10:30N 39°44' W 075°29'0 0.0
2018-Feb-12 10:00N 39°44' W 075°29'0 0.0
2018-Feb-12 09:30N 39°44' W 075°29'0 0.0
2018-Feb-12 09:00N 39°44' W 075°29'0 0.0
2018-Feb-12 08:30N 39°44' W 075°29'0 0.0
2018-Feb-12 08:00N 39°44' W 075°29'0 0.0
2018-Feb-12 07:30N 39°44' W 075°29'0 0.0
2018-Feb-12 07:00N 39°44' W 075°29'0 0.0
2018-Feb-12 06:30N 39°44' W 075°29'  

Dump ship's entire track history